Time;durP1;ratioP1;P1;durP2;ratioP2;P2;SDS_P1;SDS_P2;PMS_P1;PMS_P2;Temp;Humidity;BMP_temperature;BMP_pressure;BME280_temperature;BME280_humidity;BME280_pressure;Samples;Min_cycle;Max_cycle;Signal;HPM_P1;HPM_P2
2024/01/06 00:00:29;;;;;;;5.63;3.50;;;;;;;5.03;100.00;96974.75;5052344;28;20219;-79
2024/01/06 00:02:56;;;;;;;7.43;3.57;;;;;;;5.12;100.00;96973.31;5055407;28;20242;-79
2024/01/06 00:05:22;;;;;;;7.23;3.23;;;;;;;5.08;100.00;96980.50;5056590;28;20204;-79
2024/01/06 00:07:49;;;;;;;3.97;3.00;;;;;;;5.09;100.00;96976.09;5055220;28;20215;-76
2024/01/06 00:10:15;;;;;;;6.73;2.47;;;;;;;5.17;100.00;96979.06;5054904;28;20212;-77
2024/01/06 00:12:42;;;;;;;3.50;2.30;;;;;;;5.12;100.00;96986.41;5056771;28;20234;-79
2024/01/06 00:15:10;;;;;;;5.60;2.77;;;;;;;5.10;100.00;96985.63;5054959;28;20234;-77
2024/01/06 00:17:37;;;;;;;4.07;2.20;;;;;;;5.06;100.00;96987.63;5055029;28;20685;-78
2024/01/06 00:20:04;;;;;;;4.50;2.80;;;;;;;5.05;100.00;96982.47;5056248;28;20249;-79
2024/01/06 00:22:31;;;;;;;3.37;2.47;;;;;;;5.02;100.00;96988.75;5055257;28;20224;-76
2024/01/06 00:24:59;;;;;;;5.33;2.70;;;;;;;5.02;100.00;96986.13;5055271;28;20223;-79
2024/01/06 00:27:26;;;;;;;3.70;2.90;;;;;;;5.03;100.00;96985.22;5054393;28;20248;-76
2024/01/06 00:29:52;;;;;;;4.93;2.47;;;;;;;5.04;100.00;96984.28;5054877;28;20587;-77
2024/01/06 00:32:20;;;;;;;4.90;2.70;;;;;;;5.03;100.00;96987.84;5056370;28;20230;-78
2024/01/06 00:34:47;;;;;;;5.03;2.20;;;;;;;5.05;100.00;96991.19;5056234;28;20238;-78
2024/01/06 00:37:13;;;;;;;5.17;2.53;;;;;;;5.08;100.00;96988.34;5055331;28;20207;-78
2024/01/06 00:39:40;;;;;;;3.67;2.47;;;;;;;5.10;100.00;96996.97;5057996;28;20215;-78
2024/01/06 00:42:07;;;;;;;4.80;2.67;;;;;;;5.12;100.00;96994.25;5054815;28;20257;-79
2024/01/06 00:44:35;;;;;;;7.30;3.27;;;;;;;5.12;100.00;96991.63;5055459;28;20211;-77
2024/01/06 00:47:01;;;;;;;3.80;2.90;;;;;;;5.06;100.00;96992.03;5054641;28;20214;-78
2024/01/06 00:49:29;;;;;;;5.03;2.83;;;;;;;5.07;100.00;96996.31;5055328;28;20215;-77
2024/01/06 00:51:55;;;;;;;3.30;2.40;;;;;;;5.00;100.00;97003.72;5054659;28;20241;-77
2024/01/06 00:54:22;;;;;;;2.90;2.13;;;;;;;4.98;100.00;97000.38;5054420;28;20604;-77
2024/01/06 00:56:48;;;;;;;4.70;2.40;;;;;;;4.95;100.00;96997.94;5054535;28;20329;-78
2024/01/06 00:59:15;;;;;;;3.93;2.70;;;;;;;4.95;100.00;97003.19;5054613;28;20211;-77
2024/01/06 01:01:41;;;;;;;4.43;3.00;;;;;;;4.97;100.00;97008.31;5055499;28;20239;-77
2024/01/06 01:04:08;;;;;;;5.40;2.63;;;;;;;4.96;100.00;97017.94;5056670;28;20231;-77
2024/01/06 01:06:37;;;;;;;3.23;2.43;;;;;;;4.95;100.00;97016.28;5056157;28;20211;-78
2024/01/06 01:09:04;;;;;;;3.53;2.50;;;;;;;4.95;100.00;97023.31;5054235;28;20210;-78
2024/01/06 01:11:31;;;;;;;4.23;3.03;;;;;;;4.93;100.00;97018.16;5054593;28;20301;-78
2024/01/06 01:13:57;;;;;;;8.23;3.80;;;;;;;4.90;100.00;97018.34;5053704;28;20223;-77
2024/01/06 01:16:24;;;;;;;9.20;4.27;;;;;;;4.87;100.00;97021.16;5053838;28;20231;-77
2024/01/06 01:18:51;;;;;;;10.63;5.73;;;;;;;4.88;100.00;97030.69;5053868;28;20329;-77
2024/01/06 01:21:17;;;;;;;8.77;5.30;;;;;;;4.86;100.00;97026.50;5054412;28;20228;-77
2024/01/06 01:23:45;;;;;;;7.40;3.57;;;;;;;4.84;100.00;97034.44;5053992;28;20212;-77
2024/01/06 01:26:12;;;;;;;3.73;2.63;;;;;;;4.83;100.00;97031.94;5054121;28;20681;-77
2024/01/06 01:28:38;;;;;;;4.50;2.23;;;;;;;4.86;100.00;97035.19;5053888;28;20571;-77
2024/01/06 01:31:05;;;;;;;3.40;2.03;;;;;;;4.83;100.00;97037.19;5053960;28;20211;-77
2024/01/06 01:33:31;;;;;;;4.17;1.87;;;;;;;4.86;100.00;97037.81;5054374;28;20216;-78
2024/01/06 01:35:58;;;;;;;1.73;1.37;;;;;;;4.86;100.00;97043.06;5054447;28;20258;-77
2024/01/06 01:38:24;;;;;;;2.90;1.20;;;;;;;4.90;100.00;97047.13;5054907;28;20243;-77
2024/01/06 01:40:52;;;;;;;2.83;1.43;;;;;;;4.86;100.00;97043.06;5053336;28;20222;-77
2024/01/06 01:43:19;;;;;;;4.57;1.40;;;;;;;4.86;100.00;97047.44;5053745;28;20216;-77
2024/01/06 01:45:49;;;;;;;1.40;1.30;;;;;;;4.89;100.00;97048.06;5053561;28;20222;-77
2024/01/06 01:48:15;;;;;;;2.73;1.40;;;;;;;4.90;100.00;97055.00;5053647;28;20223;-77
2024/01/06 01:50:42;;;;;;;2.27;1.57;;;;;;;4.93;100.00;97053.97;5053117;28;20204;-77
2024/01/06 01:53:08;;;;;;;2.27;1.20;;;;;;;4.94;100.00;97048.63;5053439;28;20228;-77
2024/01/06 01:55:35;;;;;;;2.23;1.20;;;;;;;5.02;100.00;97043.72;5052710;28;20348;-77
2024/01/06 01:58:03;;;;;;;3.27;1.60;;;;;;;5.04;100.00;97047.13;5053462;28;20207;-77
2024/01/06 02:00:30;;;;;;;2.50;1.03;;;;;;;5.04;100.00;97049.72;5053167;28;20219;-77
2024/01/06 02:02:57;;;;;;;2.33;1.23;;;;;;;5.06;100.00;97050.47;5053174;28;20242;-78
2024/01/06 02:05:24;;;;;;;0.90;0.90;;;;;;;5.07;100.00;97051.31;5052798;28;20204;-77
2024/01/06 02:07:51;;;;;;;3.40;1.30;;;;;;;5.10;100.00;97051.97;5053946;28;20222;-79
2024/01/06 02:10:18;;;;;;;1.77;1.30;;;;;;;5.14;100.00;97049.97;5054077;28;20218;-79
2024/01/06 02:12:44;;;;;;;1.20;0.80;;;;;;;5.09;100.00;97039.81;5052989;28;20321;-77
2024/01/06 02:15:12;;;;;;;1.50;1.00;;;;;;;5.11;100.00;97052.78;5054318;28;20232;-79
2024/01/06 02:17:39;;;;;;;4.37;1.37;;;;;;;5.09;100.00;97050.28;5054405;28;20218;-77
2024/01/06 02:20:07;;;;;;;3.67;1.50;;;;;;;5.10;100.00;97054.56;5054454;28;20209;-79
2024/01/06 02:22:36;;;;;;;3.60;1.43;;;;;;;5.14;100.00;97053.41;5054577;28;20309;-79
2024/01/06 02:25:07;;;;;;;2.47;1.20;;;;;;;5.19;100.00;97056.59;5055042;28;20213;-78
2024/01/06 02:27:33;;;;;;;2.20;1.10;;;;;;;5.15;100.00;97062.97;5060658;28;20207;-78
2024/01/06 02:30:01;;;;;;;2.53;1.20;;;;;;;5.15;100.00;97062.97;5061345;28;20211;-78
2024/01/06 02:32:27;;;;;;;1.47;0.90;;;;;;;5.12;100.00;97065.78;5060882;28;20393;-78
2024/01/06 02:34:54;;;;;;;1.10;1.00;;;;;;;5.12;100.00;97062.34;5061006;28;20293;-78
2024/01/06 02:37:20;;;;;;;2.43;1.13;;;;;;;5.19;100.00;97069.69;5060468;28;20210;-77
2024/01/06 02:39:48;;;;;;;3.00;1.70;;;;;;;5.18;100.00;97081.09;5060967;28;20221;-78
2024/01/06 02:42:14;;;;;;;3.60;1.23;;;;;;;5.23;100.00;97084.25;5060577;28;20235;-78
2024/01/06 02:44:41;;;;;;;3.37;1.20;;;;;;;5.18;100.00;97070.63;5059900;28;20219;-78
2024/01/06 02:47:07;;;;;;;2.60;1.13;;;;;;;5.17;100.00;97086.44;5060351;28;20217;-78
2024/01/06 02:49:34;;;;;;;4.03;1.50;;;;;;;5.19;100.00;97076.72;5060210;28;20211;-78
2024/01/06 02:52:00;;;;;;;2.97;1.33;;;;;;;5.16;100.00;97069.91;5061326;28;20245;-79
2024/01/06 02:54:27;;;;;;;3.13;1.47;;;;;;;5.15;100.00;97069.97;5053290;28;20214;-77
2024/01/06 02:56:54;;;;;;;3.73;1.50;;;;;;;5.12;100.00;97071.03;5052220;28;20243;-77
2024/01/06 02:59:21;;;;;;;2.37;1.27;;;;;;;5.09;100.00;97081.72;5052212;28;20203;-77
2024/01/06 03:01:47;;;;;;;1.53;1.23;;;;;;;5.07;100.00;97078.31;5051948;28;20250;-77
2024/01/06 03:04:14;;;;;;;3.07;1.30;;;;;;;5.03;100.00;97081.25;5052402;28;20679;-77
2024/01/06 03:06:40;;;;;;;2.57;1.50;;;;;;;5.03;100.00;97082.09;5053082;28;20200;-79
2024/01/06 03:09:07;;;;;;;3.27;1.50;;;;;;;5.09;100.00;97081.72;5052415;28;20230;-78
2024/01/06 03:11:34;;;;;;;3.23;1.10;;;;;;;5.10;100.00;97074.66;5052777;28;20318;-79
2024/01/06 03:14:03;;;;;;;3.90;1.03;;;;;;;5.05;100.00;97069.75;5053684;28;20324;-78
2024/01/06 03:16:29;;;;;;;4.97;1.30;;;;;;;5.05;100.00;97074.97;5055152;28;20649;-78
2024/01/06 03:18:56;;;;;;;2.70;1.10;;;;;;;5.03;100.00;97066.38;5059018;28;20219;-78
2024/01/06 03:21:22;;;;;;;3.63;1.33;;;;;;;5.04;100.00;97068.06;5055730;28;20238;-78
2024/01/06 03:23:49;;;;;;;3.90;1.10;;;;;;;5.02;100.00;97075.16;5056855;28;20212;-78
2024/01/06 03:26:16;;;;;;;2.87;1.50;;;;;;;4.99;100.00;97070.13;5052879;28;20219;-79
2024/01/06 03:28:42;;;;;;;3.87;1.43;;;;;;;4.98;100.00;97068.44;5052369;28;20591;-78
2024/01/06 03:31:10;;;;;;;4.47;1.20;;;;;;;4.94;100.00;97072.19;5052825;28;20764;-79
2024/01/06 03:33:37;;;;;;;2.93;1.30;;;;;;;4.97;100.00;97069.41;5051389;28;20214;-77
2024/01/06 03:36:06;;;;;;;5.17;1.60;;;;;;;4.95;100.00;97067.81;5050171;28;20235;-76
2024/01/06 03:38:33;;;;;;;1.97;1.07;;;;;;;4.91;100.00;97071.56;5051505;28;20596;-77
2024/01/06 03:40:59;;;;;;;6.70;1.07;;;;;;;4.89;100.00;97068.19;5051411;28;20511;-79
2024/01/06 03:43:25;;;;;;;4.03;1.57;;;;;;;4.92;100.00;97068.84;5052885;28;20218;-79
2024/01/06 03:45:52;;;;;;;6.10;1.37;;;;;;;4.99;100.00;97069.28;5051463;28;20218;-78
2024/01/06 03:48:20;;;;;;;2.07;1.07;;;;;;;4.96;100.00;97059.84;5051218;28;20670;-77
2024/01/06 03:50:46;;;;;;;2.57;1.40;;;;;;;4.98;100.00;97062.38;5051390;28;20221;-77
2024/01/06 03:53:13;;;;;;;5.33;1.60;;;;;;;5.00;100.00;97055.28;5051460;28;20217;-77
2024/01/06 03:55:39;;;;;;;3.20;1.37;;;;;;;5.01;100.00;97052.53;5050828;28;20208;-77
2024/01/06 03:58:06;;;;;;;2.10;1.20;;;;;;;5.00;100.00;97066.56;5051236;28;20294;-77
2024/01/06 04:00:32;;;;;;;2.93;1.20;;;;;;;5.04;100.00;97065.44;5049684;28;20700;-77
2024/01/06 04:02:59;;;;;;;3.60;0.90;;;;;;;5.07;100.00;97067.84;5050935;28;20234;-79
2024/01/06 04:05:26;;;;;;;1.50;1.20;;;;;;;5.08;100.00;97069.53;5051269;28;20221;-77
2024/01/06 04:07:53;;;;;;;4.23;1.43;;;;;;;5.09;100.00;97062.53;5051052;28;20222;-77
2024/01/06 04:10:19;;;;;;;2.73;1.00;;;;;;;5.09;100.00;97068.63;5051046;28;20219;-77
2024/01/06 04:12:46;;;;;;;4.10;1.63;;;;;;;5.06;100.00;97068.78;5051104;28;20235;-77
2024/01/06 04:15:12;;;;;;;1.77;1.00;;;;;;;5.04;100.00;97070.69;5051058;28;20204;-77
2024/01/06 04:17:39;;;;;;;2.33;1.33;;;;;;;5.00;100.00;97066.56;5050666;28;20309;-77
2024/01/06 04:20:06;;;;;;;1.33;1.00;;;;;;;5.00;100.00;97078.84;5050933;28;20218;-77
2024/01/06 04:22:34;;;;;;;6.47;1.40;;;;;;;5.01;100.00;97083.94;5050924;28;20242;-77
2024/01/06 04:25:01;;;;;;;2.67;1.20;;;;;;;4.99;100.00;97090.22;5051047;28;20583;-79
2024/01/06 04:27:27;;;;;;;2.93;1.37;;;;;;;4.99;100.00;97088.47;5051069;28;20586;-77
2024/01/06 04:29:53;;;;;;;3.13;1.10;;;;;;;4.95;100.00;97094.00;5051034;28;20206;-78
2024/01/06 04:32:20;;;;;;;1.60;1.10;;;;;;;4.92;100.00;97095.03;5051057;28;20239;-77
2024/01/06 04:34:46;;;;;;;3.33;1.20;;;;;;;4.92;100.00;97095.03;5050843;28;20223;-77
2024/01/06 04:37:13;;;;;;;4.57;1.23;;;;;;;4.88;100.00;97106.63;5050964;28;20365;-78
2024/01/06 04:39:41;;;;;;;2.27;1.37;;;;;;;4.86;100.00;97100.66;5050996;28;20216;-77
2024/01/06 04:42:07;;;;;;;1.70;1.30;;;;;;;4.82;100.00;97096.53;5050596;28;20238;-77
2024/01/06 04:44:34;;;;;;;3.43;1.40;;;;;;;4.80;100.00;97101.03;5051400;28;20211;-77
2024/01/06 04:47:00;;;;;;;2.10;1.47;;;;;;;4.82;100.00;97095.69;5051061;28;20208;-77
2024/01/06 04:49:27;;;;;;;2.50;1.53;;;;;;;4.76;100.00;97110.00;5054302;28;20222;-77
2024/01/06 04:51:53;;;;;;;2.40;1.60;;;;;;;4.71;100.00;97101.59;5054474;28;20263;-78
2024/01/06 04:54:20;;;;;;;3.17;1.50;;;;;;;4.70;100.00;97105.13;5054595;28;20234;-79
2024/01/06 04:56:48;;;;;;;4.20;1.80;;;;;;;4.69;100.00;97111.31;5054079;28;20237;-77
2024/01/06 04:59:14;;;;;;;4.53;1.73;;;;;;;4.66;100.00;97113.28;5054180;28;20212;-77
2024/01/06 05:01:41;;;;;;;1.77;1.40;;;;;;;4.65;100.00;97111.63;5054016;28;20250;-77
2024/01/06 05:04:07;;;;;;;3.97;1.23;;;;;;;4.65;100.00;97112.44;5054208;28;20211;-77
2024/01/06 05:06:34;;;;;;;2.70;1.50;;;;;;;4.63;100.00;97114.31;5053945;28;20213;-77
2024/01/06 05:09:00;;;;;;;4.10;1.57;;;;;;;4.57;100.00;97125.16;5054489;28;20226;-77
2024/01/06 05:11:26;;;;;;;3.57;1.47;;;;;;;4.54;100.00;97130.59;5055032;28;20326;-79
2024/01/06 05:13:54;;;;;;;3.83;1.60;;;;;;;4.51;100.00;97129.91;5054172;28;20216;-77
2024/01/06 05:16:21;;;;;;;2.23;1.60;;;;;;;4.52;100.00;97132.44;5055558;28;20237;-78
2024/01/06 05:18:47;;;;;;;1.97;1.33;;;;;;;4.52;100.00;97134.22;5054624;28;20216;-77
2024/01/06 05:21:14;;;;;;;2.23;1.47;;;;;;;4.52;100.00;97136.84;5054001;28;20764;-78
2024/01/06 05:23:40;;;;;;;3.93;1.60;;;;;;;4.51;100.00;97141.22;5053791;28;20208;-78
2024/01/06 05:26:07;;;;;;;2.47;1.60;;;;;;;4.54;100.00;97138.44;5053959;28;20219;-77
2024/01/06 05:28:33;;;;;;;3.77;1.63;;;;;;;4.51;100.00;97141.22;5054689;28;20214;-79
2024/01/06 05:31:01;;;;;;;2.33;1.30;;;;;;;4.49;100.00;97140.50;5054319;28;20217;-77
2024/01/06 05:33:28;;;;;;;4.07;1.70;;;;;;;4.51;100.00;97143.84;5054559;28;20337;-78
2024/01/06 05:35:54;;;;;;;2.10;1.60;;;;;;;4.48;100.00;97141.44;5053857;28;20211;-77
2024/01/06 05:38:21;;;;;;;2.13;1.30;;;;;;;4.49;100.00;97150.09;5053931;28;20247;-77
2024/01/06 05:40:47;;;;;;;2.10;1.40;;;;;;;4.47;100.00;97149.38;5053532;28;20222;-77
2024/01/06 05:43:14;;;;;;;1.40;1.30;;;;;;;4.43;100.00;97148.72;5053748;28;20212;-77
2024/01/06 05:45:41;;;;;;;3.23;1.60;;;;;;;4.41;100.00;97154.97;5053037;28;20314;-77
2024/01/06 05:48:11;;;;;;;2.23;1.60;;;;;;;4.44;100.00;97149.53;5053197;28;20284;-77
2024/01/06 05:50:37;;;;;;;2.57;1.43;;;;;;;4.41;100.00;97154.97;5053535;28;20207;-78
2024/01/06 05:53:04;;;;;;;4.13;1.43;;;;;;;4.40;100.00;97156.72;5053185;28;20238;-77
2024/01/06 05:55:30;;;;;;;2.60;1.47;;;;;;;4.39;100.00;97155.06;5053370;28;20211;-78
2024/01/06 05:57:57;;;;;;;3.17;1.80;;;;;;;4.34;100.00;97164.94;5053611;28;20227;-78
2024/01/06 06:00:23;;;;;;;2.57;1.60;;;;;;;4.39;100.00;97162.91;5052049;28;20214;-77
2024/01/06 06:02:50;;;;;;;3.00;2.00;;;;;;;4.38;100.00;97165.59;5052883;28;20242;-77
2024/01/06 06:05:18;;;;;;;2.80;2.00;;;;;;;4.35;100.00;97164.00;5053421;28;20586;-78
2024/01/06 06:07:44;;;;;;;2.33;1.63;;;;;;;4.33;100.00;97178.13;5053183;28;20206;-78
2024/01/06 06:10:12;;;;;;;5.00;2.00;;;;;;;4.35;100.00;97187.53;5053075;28;20234;-78
2024/01/06 06:12:39;;;;;;;3.73;2.27;;;;;;;4.32;100.00;97198.19;5053210;28;20500;-77
2024/01/06 06:15:07;;;;;;;3.50;1.77;;;;;;;4.35;100.00;97203.25;5053645;28;20206;-77
2024/01/06 06:17:33;;;;;;;4.10;2.03;;;;;;;4.37;100.00;97200.53;5052982;28;20229;-77
2024/01/06 06:20:00;;;;;;;3.83;1.53;;;;;;;4.34;100.00;97198.94;5052943;28;20585;-77
2024/01/06 06:22:30;;;;;;;3.17;1.83;;;;;;;4.35;100.00;97202.41;5053104;28;20227;-77
2024/01/06 06:24:56;;;;;;;3.83;1.50;;;;;;;4.34;100.00;97212.03;5053066;28;20258;-79
2024/01/06 06:27:23;;;;;;;4.47;1.80;;;;;;;4.29;100.00;97208.84;5052860;28;20204;-77
2024/01/06 06:29:50;;;;;;;8.10;2.00;;;;;;;4.32;100.00;97203.44;5052608;28;20213;-77
2024/01/06 06:32:16;;;;;;;4.60;1.87;;;;;;;4.28;100.00;97207.16;5052659;28;20234;-77
2024/01/06 06:34:43;;;;;;;3.33;1.90;;;;;;;4.28;100.00;97209.75;5052465;28;20210;-77
2024/01/06 06:37:09;;;;;;;2.83;1.60;;;;;;;4.33;100.00;97214.75;5052342;28;20229;-77
2024/01/06 06:39:37;;;;;;;3.13;1.60;;;;;;;4.32;100.00;97218.28;5052921;28;20212;-77
2024/01/06 06:42:04;;;;;;;2.67;1.83;;;;;;;4.38;100.00;97217.91;5052435;28;20225;-77
2024/01/06 06:44:31;;;;;;;4.30;1.70;;;;;;;4.37;100.00;97222.31;5052849;28;20210;-78
2024/01/06 06:46:58;;;;;;;4.60;2.27;;;;;;;4.40;100.00;97226.53;5058324;28;20214;-78
2024/01/06 06:49:24;;;;;;;3.50;2.50;;;;;;;4.43;100.00;97219.34;5059292;28;20217;-78
2024/01/06 06:51:51;;;;;;;2.90;1.90;;;;;;;4.43;100.00;97224.56;5058735;28;20256;-78
2024/01/06 06:54:17;;;;;;;3.50;2.30;;;;;;;4.46;100.00;97229.59;5058908;28;20273;-78
2024/01/06 06:56:45;;;;;;;5.17;2.20;;;;;;;4.50;100.00;97220.66;5057890;28;20226;-78
2024/01/06 06:59:12;;;;;;;4.90;1.97;;;;;;;4.57;100.00;97236.81;5057917;28;20225;-78
2024/01/06 07:01:39;;;;;;;4.77;1.97;;;;;;;4.60;100.00;97223.56;5057890;28;20269;-78
2024/01/06 07:04:05;;;;;;;2.80;2.03;;;;;;;4.61;100.00;97233.09;5058026;28;20221;-78
2024/01/06 07:06:32;;;;;;;6.43;2.83;;;;;;;4.57;100.00;97234.19;5056964;28;20294;-78
2024/01/06 07:08:58;;;;;;;3.43;1.80;;;;;;;4.59;100.00;97235.78;5061780;28;20216;-78
2024/01/06 07:11:26;;;;;;;4.43;2.10;;;;;;;4.63;100.00;97234.69;5061545;28;20652;-78
2024/01/06 07:13:54;;;;;;;3.97;1.80;;;;;;;4.69;100.00;97233.47;5061352;28;20286;-78
2024/01/06 07:16:20;;;;;;;2.30;2.07;;;;;;;4.73;100.00;97237.59;5059933;28;20588;-78
2024/01/06 07:18:47;;;;;;;4.20;1.80;;;;;;;4.78;100.00;97239.00;5059012;28;20285;-78
2024/01/06 07:21:14;;;;;;;2.03;1.83;;;;;;;4.80;100.00;97239.75;5059291;28;20693;-78
2024/01/06 07:23:40;;;;;;;4.50;1.97;;;;;;;4.82;100.00;97239.66;5059695;28;20215;-78
2024/01/06 07:26:08;;;;;;;2.30;1.73;;;;;;;4.88;100.00;97240.13;5060032;28;20224;-78
2024/01/06 07:28:33;;;;;;;1.77;1.57;;;;;;;4.91;100.00;97239.09;5059834;28;20218;-78
2024/01/06 07:31:02;;;;;;;2.70;2.03;;;;;;;4.92;100.00;97246.00;5059890;28;20578;-78
2024/01/06 07:33:29;;;;;;;2.40;1.80;;;;;;;4.97;100.00;97243.97;5059676;28;20215;-78
2024/01/06 07:35:55;;;;;;;3.63;2.10;;;;;;;5.01;100.00;97248.09;5059906;28;20210;-78
2024/01/06 07:38:22;;;;;;;5.20;2.10;;;;;;;5.07;100.00;97243.28;5058680;28;20231;-78
2024/01/06 07:40:48;;;;;;;2.30;1.67;;;;;;;5.10;100.00;97245.75;5058140;28;20760;-78
2024/01/06 07:43:15;;;;;;;2.07;1.77;;;;;;;5.13;100.00;97240.31;5058566;28;20206;-78
2024/01/06 07:45:42;;;;;;;2.13;1.90;;;;;;;5.15;100.00;97243.69;5057714;28;20637;-78
2024/01/06 07:48:10;;;;;;;2.63;1.83;;;;;;;5.13;100.00;97245.53;5057705;28;20260;-81
2024/01/06 07:50:36;;;;;;;2.27;1.67;;;;;;;5.18;100.00;97248.72;5062219;28;20225;-78
2024/01/06 07:53:03;;;;;;;2.97;1.80;;;;;;;5.19;100.00;97239.91;5060038;28;20242;-78
2024/01/06 07:55:29;;;;;;;1.97;1.60;;;;;;;5.21;100.00;97242.44;5056040;28;20211;-78
2024/01/06 07:57:56;;;;;;;3.43;1.90;;;;;;;5.24;100.00;97243.09;5053698;28;20246;-79
2024/01/06 08:00:22;;;;;;;2.17;1.77;;;;;;;5.24;100.00;97242.25;5054733;28;20215;-79
2024/01/06 08:02:49;;;;;;;3.47;1.87;;;;;;;5.25;100.00;97238.72;5055141;28;20234;-79
2024/01/06 08:05:17;;;;;;;2.10;1.77;;;;;;;5.25;100.00;97241.34;5054059;28;20223;-80
2024/01/06 08:07:43;;;;;;;4.40;2.00;;;;;;;5.30;100.00;97245.34;5051262;28;20218;-77
2024/01/06 08:10:10;;;;;;;2.07;1.87;;;;;;;5.32;100.00;97251.31;5055628;28;20207;-80
2024/01/06 08:12:37;;;;;;;2.03;1.70;;;;;;;5.33;100.00;97246.94;5055455;28;20244;-78
2024/01/06 08:15:04;;;;;;;2.53;2.13;;;;;;;5.31;100.00;97251.44;5054464;28;20615;-78
2024/01/06 08:17:31;;;;;;;3.27;1.87;;;;;;;5.35;100.00;97255.53;5054809;28;20231;-78
2024/01/06 08:19:57;;;;;;;2.33;1.90;;;;;;;5.32;100.00;97251.31;5055347;28;20208;-77
2024/01/06 08:22:25;;;;;;;1.93;1.80;;;;;;;5.38;100.00;97245.69;5055541;28;20238;-77
2024/01/06 08:24:52;;;;;;;2.87;1.80;;;;;;;5.43;100.00;97259.34;5058774;28;20238;-78
2024/01/06 08:27:18;;;;;;;2.00;1.80;;;;;;;5.44;100.00;97254.97;5058832;28;20207;-78
2024/01/06 08:29:45;;;;;;;1.90;1.60;;;;;;;5.48;100.00;97257.28;5058272;28;20212;-78
2024/01/06 08:32:12;;;;;;;2.27;1.80;;;;;;;5.48;100.00;97262.53;5060077;28;20254;-78
2024/01/06 08:34:39;;;;;;;2.28;1.92;;;;;;;5.53;100.00;97262.22;5060635;28;20542;-79
2024/01/06 08:37:05;;;;;;;2.10;1.70;;;;;;;5.57;100.00;97261.13;5059510;28;20217;-80
2024/01/06 08:39:33;;;;;;;4.57;2.40;;;;;;;5.58;100.00;97262.78;5062171;28;20211;-78
2024/01/06 08:42:00;;;;;;;2.47;1.50;;;;;;;5.60;100.00;97267.00;5056877;28;20232;-79
2024/01/06 08:44:26;;;;;;;6.93;1.93;;;;;;;5.67;100.00;97263.06;5051966;28;20353;-78
2024/01/06 08:46:53;;;;;;;2.63;1.80;;;;;;;5.74;100.00;97253.84;5044733;28;20215;-78
2024/01/06 08:49:19;;;;;;;4.77;1.73;;;;;;;5.78;100.00;97257.13;5077404;28;20583;-80
2024/01/06 08:51:46;;;;;;;2.90;1.90;;;;;;;5.79;100.00;97262.28;5078297;28;20231;-79
2024/01/06 08:54:13;;;;;;;2.77;2.03;;;;;;;5.85;100.00;97261.06;5077409;28;20273;-79
2024/01/06 08:56:41;;;;;;;3.67;2.10;;;;;;;5.87;100.00;97254.78;5074454;28;20238;-79
2024/01/06 08:59:07;;;;;;;3.63;2.37;;;;;;;5.86;100.00;97268.00;5077544;28;20239;-80
2024/01/06 09:01:35;;;;;;;3.60;2.33;;;;;;;5.90;100.00;97270.34;5073868;28;20239;-79
2024/01/06 09:04:02;;;;;;;3.50;2.30;;;;;;;5.97;100.00;97270.75;5074551;28;20213;-79
2024/01/06 09:06:28;;;;;;;2.50;2.30;;;;;;;6.00;100.00;97275.81;5074269;28;20218;-79
2024/01/06 09:08:55;;;;;;;2.27;2.07;;;;;;;6.02;100.00;97268.69;5074908;28;20214;-79
2024/01/06 09:11:21;;;;;;;3.03;2.43;;;;;;;6.09;100.00;97276.06;5074948;28;20242;-79
2024/01/06 09:13:52;;;;;;;2.60;1.83;;;;;;;6.13;100.00;97267.06;5075328;28;20230;-78
2024/01/06 09:16:19;;;;;;;1.70;1.60;;;;;;;6.18;100.00;97278.06;5074674;28;20299;-78
2024/01/06 09:18:45;;;;;;;2.90;1.90;;;;;;;6.33;100.00;97277.09;5074918;28;20835;-78
2024/01/06 09:21:12;;;;;;;2.87;1.80;;;;;;;6.37;100.00;97265.47;5074925;28;20238;-79
2024/01/06 09:23:38;;;;;;;2.33;1.87;;;;;;;6.43;100.00;97275.56;5074854;28;20227;-78
2024/01/06 09:26:05;;;;;;;3.27;1.60;;;;;;;6.46;100.00;97288.44;5073791;28;20233;-78
2024/01/06 09:28:31;;;;;;;1.50;1.40;;;;;;;6.48;100.00;97283.94;5074505;28;20705;-78
2024/01/06 09:30:59;;;;;;;1.67;1.33;;;;;;;6.49;100.00;97288.28;5074133;28;20247;-78
2024/01/06 09:33:25;;;;;;;2.53;1.70;;;;;;;6.48;100.00;97294.44;5067157;28;20469;-79
2024/01/06 09:35:52;;;;;;;2.00;1.80;;;;;;;6.46;100.00;97295.47;5071723;28;20211;-78
2024/01/06 09:38:19;;;;;;;3.13;1.87;;;;;;;6.46;100.00;97303.34;5056270;28;20233;-79
2024/01/06 09:40:46;;;;;;;1.77;1.63;;;;;;;6.43;100.00;97320.16;5052893;28;20227;-78
2024/01/06 09:43:13;;;;;;;2.53;2.00;;;;;;;6.32;100.00;97313.91;5062420;28;20252;-80
2024/01/06 09:45:40;;;;;;;2.83;1.67;;;;;;;6.35;100.00;97314.56;5053507;28;20212;-80
2024/01/06 09:48:11;;;;;;;2.53;1.60;;;;;;;6.37;100.00;97328.44;5071742;28;20292;-78
2024/01/06 09:50:41;;;;;;;3.00;1.80;;;;;;;6.40;100.00;97336.09;5074157;28;20219;-78
2024/01/06 09:53:10;;;;;;;1.80;1.60;;;;;;;6.45;100.00;97328.78;5074485;28;20281;-78
2024/01/06 09:55:38;;;;;;;2.13;1.93;;;;;;;6.41;100.00;97334.31;5074474;28;20214;-78
2024/01/06 09:58:05;;;;;;;2.27;1.97;;;;;;;6.47;100.00;97332.13;5067027;28;20227;-78
2024/01/06 10:00:31;;;;;;;3.17;2.07;;;;;;;6.43;100.00;97335.91;5059629;28;20214;-78
2024/01/06 10:02:58;;;;;;;2.80;2.30;;;;;;;6.41;100.00;97343.03;5072850;28;20247;-78
2024/01/06 10:05:25;;;;;;;2.43;2.00;;;;;;;6.47;100.00;97342.63;5068171;28;20719;-78
2024/01/06 10:07:53;;;;;;;2.77;2.33;;;;;;;6.49;100.00;97332.88;5073302;28;20203;-78
2024/01/06 10:10:19;;;;;;;2.03;1.80;;;;;;;6.46;100.00;97330.44;5074597;28;20215;-78
2024/01/06 10:12:46;;;;;;;4.47;2.70;;;;;;;6.44;100.00;97321.00;5075839;28;20227;-79
2024/01/06 10:15:13;;;;;;;2.37;2.17;;;;;;;6.41;100.00;97327.28;5074777;28;20691;-78
2024/01/06 10:17:39;;;;;;;2.90;1.87;;;;;;;6.39;100.00;97331.78;5074777;28;20203;-79
2024/01/06 10:20:09;;;;;;;2.77;2.13;;;;;;;6.39;100.00;97339.66;5075495;28;20590;-78
2024/01/06 10:22:38;;;;;;;3.73;2.70;;;;;;;6.46;100.00;97335.69;5073303;28;20234;-78
2024/01/06 10:25:06;;;;;;;3.00;2.40;;;;;;;6.37;100.00;97343.34;5072811;28;20209;-79
2024/01/06 10:27:34;;;;;;;2.50;2.30;;;;;;;6.28;100.00;97343.94;5074206;28;20203;-80
2024/01/06 10:30:01;;;;;;;2.53;2.27;;;;;;;6.20;100.00;97341.81;5073329;28;20207;-78
2024/01/06 10:32:30;;;;;;;3.90;2.20;;;;;;;6.13;100.00;97345.75;5070910;28;20232;-78
2024/01/06 10:34:57;;;;;;;2.50;2.10;;;;;;;6.08;100.00;97347.84;5068779;28;20291;-80
2024/01/06 10:37:24;;;;;;;3.03;2.10;;;;;;;6.06;100.00;97352.34;5072277;28;20299;-78
2024/01/06 10:40:07;;;;;;;2.70;2.47;;;;;;;6.08;100.00;97352.22;5073195;28;20623;-79
2024/01/06 10:42:34;;;;;;;2.30;2.10;;;;;;;5.99;100.00;97352.81;5070719;28;20238;-80
2024/01/06 10:45:01;;;;;;;3.97;2.37;;;;;;;5.90;100.00;97353.38;5060506;28;20215;-79
2024/01/06 10:47:30;;;;;;;2.20;1.97;;;;;;;5.84;100.00;97353.78;5064593;28;20203;-78
2024/01/06 10:49:59;;;;;;;2.83;2.30;;;;;;;5.90;100.00;97369.13;5074175;28;20213;-78
2024/01/06 10:52:27;;;;;;;4.00;2.60;;;;;;;5.85;100.00;97365.94;5074238;28;20227;-78
2024/01/06 10:54:55;;;;;;;3.50;2.60;;;;;;;5.86;100.00;97362.41;5074203;28;20210;-80
2024/01/06 10:57:24;;;;;;;3.50;2.23;;;;;;;5.84;100.00;97353.78;5077194;28;20199;-79
2024/01/06 10:59:52;;;;;;;3.10;2.30;;;;;;;5.88;100.00;97361.38;5076564;28;20311;-79
2024/01/06 11:02:20;;;;;;;3.97;2.30;;;;;;;5.90;100.00;97358.63;5076228;28;20239;-79
2024/01/06 11:04:48;;;;;;;3.77;2.87;;;;;;;5.98;100.00;97349.34;5073191;28;20209;-80
2024/01/06 11:07:16;;;;;;;5.37;3.00;;;;;;;5.96;100.00;97350.38;5072721;28;20336;-79
2024/01/06 11:09:48;;;;;;;3.77;3.07;;;;;;;5.94;100.00;97347.88;5071933;28;20211;-80
2024/01/06 11:12:16;;;;;;;3.73;3.07;;;;;;;6.02;100.00;97348.22;5071556;28;20230;-79
2024/01/06 11:14:42;;;;;;;6.33;3.07;;;;;;;6.03;100.00;97344.66;5073383;28;20237;-80
2024/01/06 11:17:10;;;;;;;3.13;2.80;;;;;;;6.10;100.00;97351.19;5069865;28;20210;-80
2024/01/06 11:19:45;;;;;;;3.20;2.80;;;;;;;6.12;100.00;97348.47;5069872;28;20582;-80
2024/01/06 11:22:28;;;;;;;3.57;2.87;;;;;;;6.22;100.00;97350.41;5069262;28;20235;-78
2024/01/06 11:24:56;;;;;;;4.47;3.23;;;;;;;6.10;100.00;97351.19;5071486;28;20211;-79
2024/01/06 11:27:28;;;;;;;4.17;3.30;;;;;;;6.14;100.00;97344.81;5074870;28;20329;-80
2024/01/06 11:29:55;;;;;;;5.30;3.70;;;;;;;6.27;100.00;97348.34;5057136;28;20531;-79
2024/01/06 11:32:27;;;;;;;4.00;2.90;;;;;;;6.28;100.00;97343.94;5059957;28;20238;-80